Time;durP1;ratioP1;P1;durP2;ratioP2;P2;SDS_P1;SDS_P2;PMS_P1;PMS_P2;Temp;Humidity;BMP_temperature;BMP_pressure;BME280_temperature;BME280_humidity;BME280_pressure;Samples;Min_cycle;Max_cycle;Signal;HPM_P1;HPM_P2
2024/02/04 00:00:31;;;;;;;1.02;0.88;;;;;;;8.26;68.27;99705.28;4968695;28;103919;-80
2024/02/04 00:03:00;;;;;;;1.65;0.90;;;;;;;8.31;67.77;99702.25;4996516;28;102735;-80
2024/02/04 00:05:28;;;;;;;0.85;0.80;;;;;;;8.33;67.94;99700.31;4996753;28;104328;-80
2024/02/04 00:07:56;;;;;;;1.67;1.20;;;;;;;8.33;67.20;99697.66;4976146;28;104192;-79
2024/02/04 00:10:26;;;;;;;1.52;1.10;;;;;;;8.35;67.77;99679.91;4975165;28;104378;-80
2024/02/04 00:12:55;;;;;;;1.67;1.30;;;;;;;8.36;67.43;99678.09;4998063;28;102821;-81
2024/02/04 00:15:23;;;;;;;1.27;1.10;;;;;;;8.32;67.23;99674.91;4980058;28;104422;-81
2024/02/04 00:17:51;;;;;;;1.75;1.20;;;;;;;8.34;67.35;99667.66;5000773;28;103181;-81
2024/02/04 00:20:19;;;;;;;1.10;1.00;;;;;;;8.27;67.60;99661.25;4974873;28;103436;-81
2024/02/04 00:22:47;;;;;;;0.98;0.90;;;;;;;8.24;67.69;99653.56;4998650;28;102639;-81
2024/02/04 00:25:19;;;;;;;2.05;1.40;;;;;;;8.21;68.16;99651.22;4981668;28;103757;-81
2024/02/04 00:27:48;;;;;;;1.02;0.88;;;;;;;8.20;68.23;99652.16;4980131;28;102680;-80
2024/02/04 00:30:16;;;;;;;1.30;0.90;;;;;;;8.13;67.88;99657.97;4979399;28;104245;-78
2024/02/04 00:32:44;;;;;;;1.23;1.02;;;;;;;8.13;67.56;99665.03;4976340;28;103225;-80
2024/02/04 00:35:12;;;;;;;0.73;0.73;;;;;;;8.18;67.88;99669.94;4973655;28;102770;-81
2024/02/04 00:37:40;;;;;;;0.88;0.88;;;;;;;8.21;68.10;99656.50;4986838;28;103937;-81
2024/02/04 00:40:10;;;;;;;1.23;1.13;;;;;;;8.22;67.56;99651.06;4989247;28;103333;-81
2024/02/04 00:42:38;;;;;;;1.58;1.10;;;;;;;8.22;67.78;99644.97;4982510;28;102791;-81
2024/02/04 00:45:08;;;;;;;1.40;1.15;;;;;;;8.20;67.73;99660.94;4974197;28;103053;-80
2024/02/04 00:47:36;;;;;;;1.20;1.10;;;;;;;8.19;67.62;99656.63;4999083;28;104456;-79
2024/02/04 00:50:05;;;;;;;1.08;0.90;;;;;;;8.17;68.19;99650.63;4979909;28;103421;-81
2024/02/04 00:52:33;;;;;;;1.52;1.25;;;;;;;8.19;67.57;99661.03;4985637;28;102754;-82
2024/02/04 00:55:01;;;;;;;2.00;1.30;;;;;;;8.14;67.64;99670.19;4983766;28;102862;-80
2024/02/04 00:57:29;;;;;;;0.75;0.75;;;;;;;8.18;67.73;99669.94;4982508;28;104316;-80
2024/02/04 00:59:57;;;;;;;1.10;1.00;;;;;;;8.18;67.63;99667.31;4983328;28;104320;-80
2024/02/04 01:02:26;;;;;;;0.88;0.88;;;;;;;8.14;67.66;99670.19;4979739;28;102693;-81
2024/02/04 01:04:54;;;;;;;0.55;0.55;;;;;;;8.15;67.98;99668.41;4998023;28;102703;-79
2024/02/04 01:07:23;;;;;;;0.80;0.80;;;;;;;8.10;68.06;99662.66;4993715;28;103409;-81
2024/02/04 01:09:51;;;;;;;0.70;0.70;;;;;;;8.16;67.81;99666.59;4995935;28;103920;-80
2024/02/04 01:12:19;;;;;;;0.80;0.80;;;;;;;8.16;68.17;99658.66;4985991;28;102547;-79
2024/02/04 01:14:47;;;;;;;1.15;0.90;;;;;;;8.10;67.53;99666.13;4999381;28;105108;-80
2024/02/04 01:17:14;;;;;;;0.80;0.80;;;;;;;8.14;68.09;99664.91;4987884;28;104583;-80
2024/02/04 01:19:44;;;;;;;0.52;0.52;;;;;;;8.15;68.23;99655.22;5004042;28;103285;-80
2024/02/04 01:22:12;;;;;;;0.63;0.63;;;;;;;8.13;67.75;99657.13;5008260;28;102665;-81
2024/02/04 01:24:40;;;;;;;0.73;0.70;;;;;;;8.14;67.50;99642.97;4996564;28;104258;-80
2024/02/04 01:27:08;;;;;;;1.70;1.00;;;;;;;8.12;67.70;99645.75;5002132;28;104296;-81
2024/02/04 01:29:36;;;;;;;1.48;0.90;;;;;;;8.08;68.00;99643.47;5004330;28;102715;-81
2024/02/04 01:32:05;;;;;;;2.40;1.30;;;;;;;8.07;67.55;99653.22;4979853;28;102695;-79
2024/02/04 01:34:33;;;;;;;1.98;1.50;;;;;;;8.01;67.86;99661.63;4984359;28;104242;-80
2024/02/04 01:37:02;;;;;;;2.05;1.40;;;;;;;8.04;67.63;99648.16;4983005;28;104349;-80
2024/02/04 01:39:32;;;;;;;1.35;1.25;;;;;;;8.01;68.18;99643.16;4979992;28;105104;-80
2024/02/04 01:42:00;;;;;;;2.80;1.50;;;;;;;8.01;67.89;99643.16;4986354;28;102727;-81
2024/02/04 01:44:28;;;;;;;1.73;1.20;;;;;;;7.96;68.01;99650.63;5005748;28;103886;-80
2024/02/04 01:46:57;;;;;;;2.70;1.75;;;;;;;7.93;68.25;99645.63;5002454;28;104271;-81
2024/02/04 01:49:25;;;;;;;4.32;1.98;;;;;;;7.94;68.67;99647.28;4988402;28;104321;-81
2024/02/04 01:51:54;;;;;;;4.13;1.95;;;;;;;7.93;68.89;99646.44;4981381;28;102728;-81
2024/02/04 01:54:25;;;;;;;3.90;1.92;;;;;;;7.98;68.13;99646.06;4984132;28;103780;-81
2024/02/04 01:56:55;;;;;;;3.60;1.92;;;;;;;8.00;67.79;99644.13;4988092;28;104617;-81
2024/02/04 01:59:28;;;;;;;5.07;2.45;;;;;;;8.00;68.10;99654.66;4983264;28;105977;-80
2024/02/04 02:01:56;;;;;;;3.63;1.80;;;;;;;8.00;68.48;99659.94;4985707;28;104042;-80
2024/02/04 02:04:26;;;;;;;3.17;1.40;;;;;;;7.98;68.17;99651.34;4989841;28;103405;-81
2024/02/04 02:06:54;;;;;;;2.60;1.50;;;;;;;7.97;68.07;99653.13;5001924;28;104055;-80
2024/02/04 02:09:25;;;;;;;2.38;1.40;;;;;;;8.00;68.03;99652.03;5003500;27;103272;-80
2024/02/04 02:11:58;;;;;;;1.15;1.00;;;;;;;7.95;68.17;99646.31;4980263;28;102742;-80
2024/02/04 02:14:31;;;;;;;2.05;1.40;;;;;;;7.96;68.14;99642.72;4983104;28;102699;-80
2024/02/04 02:17:03;;;;;;;1.00;1.00;;;;;;;7.94;68.11;99644.66;4982451;28;104437;-80
2024/02/04 02:19:48;;;;;;;1.40;1.10;;;;;;;7.93;68.33;99635.06;4980589;28;103483;-80
2024/02/04 02:22:27;;;;;;;1.77;1.30;;;;;;;7.92;67.86;99641.28;4981723;28;102879;-80
2024/02/04 02:24:58;;;;;;;0.93;0.93;;;;;;;7.86;68.45;99644.44;5000374;28;102813;-81
2024/02/04 02:27:27;;;;;;;1.00;0.90;;;;;;;7.90;68.07;99635.28;4983227;28;104178;-81
2024/02/04 02:29:55;;;;;;;1.15;1.00;;;;;;;7.91;67.96;99636.97;4990973;28;104142;-79
2024/02/04 02:32:23;;;;;;;1.48;1.10;;;;;;;7.88;67.93;99638.06;5006639;28;102677;-80
2024/02/04 02:34:51;;;;;;;1.75;1.10;;;;;;;7.91;68.35;99647.53;4986768;28;104419;-79
2024/02/04 02:37:27;;;;;;;0.77;0.77;;;;;;;7.86;68.27;99649.72;5008597;28;104507;-79
2024/02/04 02:40:02;;;;;;;0.82;0.82;;;;;;;7.92;68.55;99643.94;4994011;28;104152;-79
2024/02/04 02:42:33;;;;;;;0.63;0.63;;;;;;;7.93;68.43;99645.63;4992550;28;102746;-79
2024/02/04 02:45:02;;;;;;;0.77;0.77;;;;;;;7.94;68.32;99636.75;5003421;28;104304;-79
2024/02/04 02:47:31;;;;;;;0.93;0.73;;;;;;;7.97;68.03;99641.75;5009268;28;103373;-79
2024/02/04 02:50:02;;;;;;;0.80;0.80;;;;;;;7.97;68.39;99641.75;4997668;28;104232;-77
2024/02/04 02:52:30;;;;;;;1.42;0.77;;;;;;;7.98;67.87;99638.16;4987177;28;102736;-78
2024/02/04 02:55:00;;;;;;;1.95;1.13;;;;;;;7.99;68.31;99636.34;4987564;28;103989;-79
2024/02/04 02:57:27;;;;;;;0.85;0.85;;;;;;;7.98;68.20;99635.50;4982616;28;103241;-79
2024/02/04 02:59:55;;;;;;;1.10;0.95;;;;;;;7.96;68.02;99645.34;5002202;28;103216;-79
2024/02/04 03:02:23;;;;;;;0.70;0.70;;;;;;;7.98;68.17;99627.59;4985317;28;102718;-79
2024/02/04 03:04:51;;;;;;;0.60;0.60;;;;;;;7.95;68.66;99627.84;5001754;28;104085;-78
2024/02/04 03:07:20;;;;;;;0.68;0.68;;;;;;;7.96;68.58;99629.53;4983470;28;106754;-79
2024/02/04 03:09:49;;;;;;;0.82;0.82;;;;;;;7.93;68.46;99619.22;5000516;28;103224;-78
2024/02/04 03:12:18;;;;;;;0.82;0.70;;;;;;;7.92;68.03;99625.47;4985604;28;102726;-78
2024/02/04 03:14:46;;;;;;;0.70;0.70;;;;;;;7.91;68.19;99622.00;5001176;28;104241;-78
2024/02/04 03:17:14;;;;;;;0.80;0.80;;;;;;;7.91;68.29;99621.16;4987020;28;104467;-80
2024/02/04 03:19:44;;;;;;;0.60;0.60;;;;;;;7.94;68.61;99623.56;4979503;28;103448;-79
2024/02/04 03:22:12;;;;;;;0.60;0.60;;;;;;;7.90;68.91;99619.47;4987471;28;102643;-78
2024/02/04 03:24:40;;;;;;;1.45;0.70;;;;;;;7.92;68.67;99612.28;4981677;28;104577;-79
2024/02/04 03:27:08;;;;;;;1.67;1.02;;;;;;;7.91;68.23;99615.88;4979323;28;104270;-79
2024/02/04 03:29:37;;;;;;;1.02;0.75;;;;;;;7.92;68.64;99612.28;4980572;28;104346;-80
2024/02/04 03:32:05;;;;;;;1.20;1.10;;;;;;;7.94;68.38;99610.38;5002116;28;102809;-79
2024/02/04 03:34:35;;;;;;;4.03;1.92;;;;;;;7.93;68.67;99606.03;4981282;28;102814;-79
2024/02/04 03:37:06;;;;;;;3.30;1.55;;;;;;;7.90;69.05;99615.06;4986169;28;105618;-80
2024/02/04 03:39:34;;;;;;;3.50;1.67;;;;;;;7.84;69.35;99620.00;4980405;28;103401;-78
2024/02/04 03:42:02;;;;;;;2.47;1.30;;;;;;;7.83;69.54;99613.06;4981501;28;102728;-79
2024/02/04 03:44:31;;;;;;;2.13;1.30;;;;;;;7.89;69.00;99612.53;5009615;28;104356;-80
2024/02/04 03:47:03;;;;;;;1.70;1.17;;;;;;;7.90;69.56;99614.19;4988220;28;104206;-79
2024/02/04 03:49:31;;;;;;;2.58;1.30;;;;;;;7.93;68.78;99606.03;4990627;28;104745;-79
2024/02/04 03:51:59;;;;;;;1.23;1.00;;;;;;;7.92;69.29;99607.00;4984462;28;102737;-80
2024/02/04 03:54:27;;;;;;;1.15;0.93;;;;;;;7.92;68.74;99601.72;4993549;28;103953;-79
2024/02/04 03:56:55;;;;;;;1.00;0.80;;;;;;;7.87;69.50;99604.75;4981671;28;104373;-78
2024/02/04 03:59:23;;;;;;;0.73;0.73;;;;;;;7.86;69.35;99597.81;4986247;28;104092;-78
2024/02/04 04:01:53;;;;;;;1.55;1.02;;;;;;;7.74;69.76;99599.69;5004302;28;102629;-78
2024/02/04 04:04:22;;;;;;;0.98;0.90;;;;;;;7.69;70.18;99619.47;4987113;28;103979;-79
2024/02/04 04:06:50;;;;;;;2.17;1.23;;;;;;;7.74;69.66;99620.78;5004477;28;103299;-79
2024/02/04 04:09:21;;;;;;;1.83;1.02;;;;;;;7.72;69.53;99622.69;4982561;28;103346;-78
2024/02/04 04:11:49;;;;;;;2.58;1.30;;;;;;;7.70;69.83;99624.59;5004015;28;102744;-79
2024/02/04 04:14:17;;;;;;;1.77;1.08;;;;;;;7.66;70.28;99623.19;5005016;28;104045;-79
2024/02/04 04:16:45;;;;;;;1.08;1.00;;;;;;;7.60;69.96;99624.53;4984474;28;104211;-79
2024/02/04 04:19:15;;;;;;;0.90;0.88;;;;;;;7.70;70.10;99621.97;4996554;28;103299;-79
2024/02/04 04:21:44;;;;;;;1.90;1.30;;;;;;;7.73;69.29;99619.09;4977597;28;102787;-79
2024/02/04 04:24:12;;;;;;;1.35;1.23;;;;;;;7.63;69.74;99634.00;4998934;28;104112;-79
2024/02/04 04:26:40;;;;;;;2.10;1.35;;;;;;;7.47;70.05;99629.97;5003606;28;104479;-80
2024/02/04 04:29:09;;;;;;;1.13;0.90;;;;;;;7.51;70.13;99627.94;4987610;28;104422;-78
2024/02/04 04:31:36;;;;;;;1.17;0.90;;;;;;;7.47;70.62;99626.50;4983281;28;102652;-78
2024/02/04 04:34:04;;;;;;;1.10;1.00;;;;;;;7.52;70.52;99632.25;4986398;28;102796;-79
2024/02/04 04:36:32;;;;;;;0.95;0.95;;;;;;;7.49;70.72;99632.47;4997384;28;104376;-81
2024/02/04 04:39:02;;;;;;;0.93;0.85;;;;;;;7.49;70.32;99636.94;4997102;28;103336;-79
2024/02/04 04:41:31;;;;;;;1.38;1.27;;;;;;;7.55;70.30;99631.16;4992048;28;102719;-78
2024/02/04 04:43:58;;;;;;;1.65;1.00;;;;;;;7.55;70.12;99631.16;4977823;28;105064;-79
2024/02/04 04:46:29;;;;;;;2.10;1.10;;;;;;;7.66;69.85;99632.91;4981672;28;104191;-81
2024/02/04 04:48:57;;;;;;;0.80;0.80;;;;;;;7.64;69.54;99619.84;5012006;28;102943;-79
2024/02/04 04:51:27;;;;;;;1.85;1.20;;;;;;;7.63;69.89;99628.72;4981838;28;102745;-80
2024/02/04 04:53:55;;;;;;;1.17;1.00;;;;;;;7.66;70.06;99639.00;4998110;28;104084;-81
2024/02/04 04:56:24;;;;;;;1.27;1.00;;;;;;;7.57;70.95;99645.03;4976251;28;103805;-80
2024/02/04 04:58:52;;;;;;;1.65;1.17;;;;;;;7.60;70.81;99639.53;4997409;28;102685;-79
2024/02/04 05:01:20;;;;;;;1.65;1.20;;;;;;;7.53;71.25;99640.97;4987180;28;102794;-81
2024/02/04 05:03:48;;;;;;;1.10;1.00;;;;;;;7.50;70.66;99633.34;5003029;28;102749;-80
2024/02/04 05:06:16;;;;;;;0.93;0.85;;;;;;;7.53;71.01;99630.44;4975343;28;104389;-80
2024/02/04 05:08:44;;;;;;;0.80;0.80;;;;;;;7.62;70.44;99629.69;4997540;28;103310;-80
2024/02/04 05:11:12;;;;;;;0.93;0.82;;;;;;;7.64;70.38;99622.50;4979627;28;103819;-80
2024/02/04 05:13:41;;;;;;;1.00;0.90;;;;;;;7.64;70.48;99631.22;4999789;28;103026;-80
2024/02/04 05:16:09;;;;;;;1.48;1.00;;;;;;;7.66;70.48;99641.63;5005448;28;103206;-79
2024/02/04 05:18:37;;;;;;;1.02;0.82;;;;;;;7.60;71.00;99637.72;4998337;28;104383;-79
2024/02/04 05:21:05;;;;;;;1.17;0.93;;;;;;;7.66;70.72;99639.00;4993256;28;102696;-79
2024/02/04 05:23:33;;;;;;;0.82;0.82;;;;;;;7.68;70.83;99637.09;4976699;28;104505;-80
2024/02/04 05:26:04;;;;;;;2.42;1.20;;;;;;;7.68;70.53;99637.09;4995316;28;103281;-80
2024/02/04 05:28:32;;;;;;;1.00;1.00;;;;;;;7.67;70.33;99635.41;5001143;28;103256;-80
2024/02/04 05:31:03;;;;;;;0.95;0.90;;;;;;;7.70;70.56;99629.88;5004424;28;102598;-80
2024/02/04 05:33:32;;;;;;;1.75;1.45;;;;;;;7.65;70.46;99634.72;4994915;28;104237;-81
2024/02/04 05:36:00;;;;;;;1.08;1.00;;;;;;;7.68;70.21;99631.81;4975065;28;104415;-80
2024/02/04 05:38:28;;;;;;;0.70;0.70;;;;;;;7.69;70.32;99633.50;4995225;28;103422;-79
2024/02/04 05:40:56;;;;;;;1.13;0.90;;;;;;;7.70;70.25;99639.59;4997607;28;102656;-79
2024/02/04 05:43:24;;;;;;;0.90;0.88;;;;;;;7.68;70.53;99644.19;4984433;28;104078;-79
2024/02/04 05:45:54;;;;;;;1.13;1.02;;;;;;;7.73;70.75;99632.28;5008158;28;104278;-79
2024/02/04 05:48:24;;;;;;;1.70;1.00;;;;;;;7.69;70.71;99645.81;5004627;28;103198;-79
2024/02/04 05:50:52;;;;;;;0.60;0.60;;;;;;;7.70;70.88;99643.06;4981947;28;102727;-80
2024/02/04 05:53:20;;;;;;;0.90;0.90;;;;;;;7.71;70.35;99642.09;4978927;28;104118;-80
2024/02/04 05:55:48;;;;;;;0.60;0.60;;;;;;;7.75;70.58;99632.97;4998467;28;103639;-80
2024/02/04 05:58:16;;;;;;;1.05;0.95;;;;;;;7.75;70.72;99637.41;4979764;28;104571;-80
2024/02/04 06:00:43;;;;;;;0.80;0.77;;;;;;;7.79;69.95;99644.97;5007011;28;102943;-80
2024/02/04 06:03:12;;;;;;;0.60;0.60;;;;;;;7.79;70.70;99639.69;4985016;28;104215;-78
2024/02/04 06:05:44;;;;;;;0.88;0.75;;;;;;;7.80;70.52;99643.97;4979593;28;104312;-80
2024/02/04 06:08:12;;;;;;;0.60;0.60;;;;;;;7.81;70.51;99636.91;4995822;28;103726;-80
2024/02/04 06:10:40;;;;;;;0.50;0.50;;;;;;;7.79;70.03;99631.78;4984153;28;102666;-80
2024/02/04 06:13:08;;;;;;;0.50;0.50;;;;;;;7.82;70.12;99643.03;5003288;28;104291;-80
2024/02/04 06:15:36;;;;;;;0.43;0.43;;;;;;;7.90;69.85;99640.56;4994981;28;104415;-80
2024/02/04 06:18:04;;;;;;;0.40;0.40;;;;;;;7.94;69.98;99639.38;5006640;28;103250;-80
2024/02/04 06:20:32;;;;;;;0.60;0.60;;;;;;;7.98;69.52;99643.44;4982234;28;102793;-80
2024/02/04 06:23:01;;;;;;;1.23;0.47;;;;;;;7.95;70.16;99654.22;4995529;28;103754;-79
2024/02/04 06:25:29;;;;;;;0.30;0.30;;;;;;;7.96;69.79;99651.47;4998870;28;104485;-80
2024/02/04 06:27:57;;;;;;;0.52;0.52;;;;;;;7.93;69.79;99649.06;4982199;28;104426;-76
2024/02/04 06:30:25;;;;;;;0.70;0.70;;;;;;;7.98;69.67;99643.44;5004907;28;102554;-77
2024/02/04 06:32:53;;;;;;;0.43;0.43;;;;;;;7.99;69.17;99649.53;5002155;28;102665;-77
2024/02/04 06:35:21;;;;;;;0.50;0.50;;;;;;;7.97;69.51;99652.31;5000069;28;103354;-75
2024/02/04 06:37:49;;;;;;;0.55;0.55;;;;;;;7.87;69.95;99646.13;4984337;28;104298;-78
2024/02/04 06:40:18;;;;;;;0.63;0.50;;;;;;;7.89;70.03;99654.75;5002363;28;102690;-78
2024/02/04 06:42:46;;;;;;;0.77;0.60;;;;;;;7.93;69.20;99661.44;5013944;28;102784;-78
2024/02/04 06:45:14;;;;;;;1.05;0.90;;;;;;;7.84;69.89;99657.75;5001171;28;103994;-78
2024/02/04 06:47:44;;;;;;;0.90;0.82;;;;;;;7.86;69.79;99663.75;4982189;28;103249;-78
2024/02/04 06:50:15;;;;;;;0.73;0.73;;;;;;;7.79;70.18;99665.22;4981031;28;103060;-80
2024/02/04 06:52:45;;;;;;;0.50;0.50;;;;;;;7.89;69.34;99666.13;4996854;28;102783;-80
2024/02/04 06:55:13;;;;;;;1.17;0.70;;;;;;;7.84;69.61;99667.47;4997799;28;104300;-74
2024/02/04 06:57:43;;;;;;;1.05;0.80;;;;;;;7.85;69.60;99669.97;5007923;28;103189;-74
2024/02/04 07:00:12;;;;;;;0.50;0.50;;;;;;;7.88;70.11;99663.63;5007675;28;103991;-76
2024/02/04 07:02:40;;;;;;;0.50;0.50;;;;;;;7.82;69.96;99653.56;4983513;28;104066;-76
2024/02/04 07:05:10;;;;;;;0.80;0.80;;;;;;;7.83;69.52;99647.34;4998187;28;103275;-83
2024/02/04 07:07:40;;;;;;;0.60;0.60;;;;;;;7.77;69.54;99644.25;4999578;28;103756;-81
2024/02/04 07:10:08;;;;;;;0.57;0.57;;;;;;;7.79;70.00;99642.31;4998697;28;102735;-88
2024/02/04 07:12:36;;;;;;;0.63;0.63;;;;;;;7.80;70.00;99640.50;5009077;28;104218;-88
2024/02/04 07:15:07;;;;;;;0.50;0.50;;;;;;;7.83;69.50;99642.88;5009171;28;103299;-87
2024/02/04 07:17:35;;;;;;;0.60;0.60;;;;;;;7.80;69.46;99643.97;5017536;28;103315;-84
2024/02/04 07:20:03;;;;;;;0.70;0.70;;;;;;;7.83;69.56;99644.69;4977341;28;102817;-86
2024/02/04 07:22:31;;;;;;;0.57;0.57;;;;;;;7.80;69.64;99636.06;4985936;28;103284;-88
2024/02/04 07:25:06;;;;;;;1.55;0.60;;;;;;;7.80;69.68;99628.16;4996499;28;102870;-88
2024/02/04 07:27:34;;;;;;;0.70;0.70;;;;;;;7.82;69.41;99633.31;4993725;28;104198;-87
2024/02/04 07:30:03;;;;;;;0.50;0.50;;;;;;;7.76;69.90;99637.28;5008251;28;102786;-88
2024/02/04 07:32:34;;;;;;;0.60;0.60;;;;;;;7.81;69.45;99642.19;4987970;28;102790;-85
2024/02/04 07:35:02;;;;;;;0.55;0.55;;;;;;;7.83;69.65;99637.59;4998249;28;102767;-85
2024/02/04 07:37:30;;;;;;;0.50;0.50;;;;;;;7.87;69.50;99635.56;4990088;28;104160;-86
2024/02/04 07:39:58;;;;;;;0.80;0.80;;;;;;;7.88;69.81;99645.16;5011062;28;102656;-85
2024/02/04 07:42:26;;;;;;;0.90;0.90;;;;;;;7.97;69.51;99641.75;4963633;28;102791;-85
2024/02/04 07:44:54;;;;;;;0.98;0.82;;;;;;;7.94;69.89;99657.84;5008837;28;103711;-84
2024/02/04 07:47:22;;;;;;;0.80;0.80;;;;;;;8.00;69.32;99661.75;4996932;28;104277;-81
2024/02/04 07:49:54;;;;;;;3.40;1.80;;;;;;;8.13;69.28;99654.50;5011184;28;102734;-86
2024/02/04 07:52:22;;;;;;;2.70;1.40;;;;;;;8.32;69.07;99659.06;4993754;28;104392;-86
2024/02/04 07:54:50;;;;;;;3.22;1.85;;;;;;;8.51;68.28;99644.31;5008874;28;103466;-88
2024/02/04 07:57:18;;;;;;;2.08;1.40;;;;;;;8.62;67.93;99644.25;5014482;28;103256;-87
2024/02/04 07:59:46;;;;;;;1.05;0.90;;;;;;;8.73;68.00;99633.56;4999956;28;105086;-88
2024/02/04 08:02:17;;;;;;;0.80;0.80;;;;;;;8.76;68.07;99625.41;5024250;28;102719;-88
2024/02/04 08:04:45;;;;;;;1.88;1.10;;;;;;;8.87;67.35;99619.16;5012043;28;103326;-78
2024/02/04 08:07:17;;;;;;;0.93;0.88;;;;;;;8.92;67.38;99616.09;5011844;27;103296;-84
2024/02/04 08:09:46;;;;;;;0.80;0.80;;;;;;;8.99;66.99;99617.25;5006401;28;102570;-84
2024/02/04 08:12:15;;;;;;;0.80;0.80;;;;;;;8.92;67.11;99626.69;5011396;28;102566;-84
2024/02/04 08:14:43;;;;;;;2.47;0.73;;;;;;;8.79;66.98;99629.56;4993290;28;105937;-85
2024/02/04 08:17:10;;;;;;;0.88;0.88;;;;;;;8.98;67.17;99641.19;5003369;28;103132;-87
2024/02/04 08:19:38;;;;;;;0.85;0.82;;;;;;;8.96;67.02;99638.66;4990674;28;102676;-87
2024/02/04 08:22:06;;;;;;;0.80;0.73;;;;;;;9.09;66.77;99646.34;4994610;28;103576;-87
2024/02/04 08:24:36;;;;;;;0.70;0.70;;;;;;;8.97;66.62;99640.31;5008012;28;103874;-87
2024/02/04 08:27:05;;;;;;;0.73;0.68;;;;;;;9.03;66.69;99634.50;5016488;28;103253;-81
2024/02/04 08:29:43;;;;;;;0.70;0.70;;;;;;;9.09;66.83;99633.13;5085235;27;104078;-73
2024/02/04 08:32:12;;;;;;;0.70;0.70;;;;;;;9.03;66.74;99650.34;5050647;27;102778;-73
2024/02/04 08:34:40;;;;;;;0.80;0.80;;;;;;;9.03;67.12;99638.97;5020861;27;104334;-73
2024/02/04 08:37:09;;;;;;;0.68;0.68;;;;;;;9.07;67.01;99635.06;5013158;27;103073;-74
2024/02/04 08:39:37;;;;;;;0.80;0.80;;;;;;;9.15;66.92;99648.44;5014222;27;102715;-73
2024/02/04 08:42:06;;;;;;;1.00;0.75;;;;;;;9.23;66.98;99650.41;5014197;27;104217;-73
2024/02/04 08:44:37;;;;;;;0.63;0.63;;;;;;;9.27;66.36;99646.50;4997300;27;104637;-73
2024/02/04 08:47:10;;;;;;;0.77;0.70;;;;;;;9.21;66.42;99647.91;5020546;27;103318;-75
2024/02/04 08:49:38;;;;;;;0.43;0.43;;;;;;;9.33;66.58;99645.97;4997379;27;102994;-73
2024/02/04 08:52:07;;;;;;;1.65;1.20;;;;;;;9.33;66.42;99650.41;4986143;27;103334;-72
2024/02/04 08:54:38;;;;;;;1.15;0.95;;;;;;;9.38;66.40;99637.63;5001782;27;104359;-73
2024/02/04 08:57:16;;;;;;;0.70;0.70;;;;;;;9.36;66.21;99634.28;4995302;28;103780;-74
2024/02/04 09:50:57;;;;;;;0.30;0.30;;;;;;;13.76;51.85;99662.13;5121159;27;102589;-71
2024/02/04 09:53:34;;;;;;;0.22;0.22;;;;;;;12.35;57.18;99646.63;5104768;27;103055;-68
2024/02/04 09:56:06;;;;;;;0.20;0.20;;;;;;;12.14;57.87;99639.03;5107180;27;104117;-68
2024/02/04 09:58:34;;;;;;;0.20;0.20;;;;;;;11.74;58.72;99620.75;5079760;27;104206;-68
2024/02/04 10:01:04;;;;;;;0.22;0.22;;;;;;;11.22;59.52;99610.00;5101417;27;102757;-68
2024/02/04 10:03:33;;;;;;;0.20;0.20;;;;;;;11.07;60.06;99594.59;5106673;27;102696;-68
2024/02/04 10:06:04;;;;;;;0.22;0.22;;;;;;;10.87;60.52;99603.66;5082770;27;104507;-69
2024/02/04 10:08:33;;;;;;;0.20;0.20;;;;;;;11.01;60.63;99597.84;5044946;27;103924;-68
2024/02/04 10:11:02;;;;;;;0.25;0.15;;;;;;;10.80;61.15;99599.94;5046909;27;102719;-68
2024/02/04 10:13:43;;;;;;;1.80;0.20;;;;;;;10.75;60.84;99593.22;5026430;27;104404;-68
2024/02/04 10:16:12;;;;;;;0.45;0.20;;;;;;;10.51;61.31;99587.66;5043183;27;103263;-68
2024/02/04 10:18:42;;;;;;;0.35;0.20;;;;;;;10.59;61.35;99587.75;5043448;27;103059;-69
2024/02/04 10:21:19;;;;;;;0.10;0.10;;;;;;;10.63;61.48;99567.94;5022554;27;102706;-68
2024/02/04 10:23:47;;;;;;;0.65;0.30;;;;;;;10.58;61.75;99565.69;5018217;27;104207;-68
2024/02/04 10:26:16;;;;;;;0.55;0.20;;;;;;;10.57;62.40;99585.25;5039966;27;103276;-68
2024/02/04 10:28:47;;;;;;;0.73;0.30;;;;;;;10.55;61.87;99581.09;5052422;27;103426;-69
2024/02/04 10:31:16;;;;;;;0.30;0.30;;;;;;;10.71;62.02;99597.16;5034990;27;102909;-68
2024/02/04 10:33:44;;;;;;;0.10;0.10;;;;;;;10.92;61.37;99601.38;5052917;27;102996;-68
2024/02/04 10:36:13;;;;;;;0.20;0.20;;;;;;;10.67;62.54;99593.13;5047204;27;103350;-71
2024/02/04 10:38:43;;;;;;;0.40;0.30;;;;;;;10.69;61.87;99593.84;5046142;27;103287;-70
2024/02/04 10:41:19;;;;;;;0.25;0.25;;;;;;;10.51;62.34;99609.66;5030195;22;102837;-68
2024/02/04 10:43:47;;;;;;;7.15;2.78;;;;;;;10.53;62.56;99604.22;5025023;22;104740;-68
2024/02/04 10:46:19;;;;;;;5.40;2.58;;;;;;;10.85;62.00;99600.31;5011210;27;103388;-68
2024/02/04 10:48:56;;;;;;;1.85;0.98;;;;;;;11.10;61.36;99593.47;5027009;27;104028;-68
2024/02/04 10:51:50;;;;;;;0.55;0.40;;;;;;;10.91;61.64;99599.72;5029591;27;102666;-68
2024/02/04 10:54:24;;;;;;;0.93;0.35;;;;;;;11.06;61.71;99603.53;5004301;27;102790;-68
2024/02/04 10:57:15;;;;;;;0.45;0.30;;;;;;;10.62;62.32;99606.00;5009085;27;103279;-68
2024/02/04 10:59:53;;;;;;;0.40;0.30;;;;;;;10.50;62.66;99601.88;5006183;22;103310;-69
2024/02/04 11:02:23;;;;;;;0.22;0.22;;;;;;;10.48;62.62;99587.94;4961573;28;102642;-68
2024/02/04 11:04:54;;;;;;;0.20;0.20;;;;;;;10.86;61.97;99580.78;4958082;28;102823;-68
2024/02/04 11:07:40;;;;;;;0.80;0.38;;;;;;;11.06;60.40;99560.28;4952836;28;104256;-68
2024/02/04 11:10:22;;;;;;;0.37;0.37;;;;;;;11.95;58.89;99555.94;4952531;28;104457;-69
2024/02/04 11:17:17;;;;;;;;;;;;;;;12.83;57.01;99562.00;4957343;28;102752;-69
2024/02/04 11:20:03;;;;;;;;;;;;;;;12.53;57.71;99570.34;4960247;28;103314;-71
2024/02/04 11:22:55;;;;;;;;;;;;;;;12.92;56.65;99569.81;4962243;28;103555;-70
2024/02/04 11:25:47;;;;;;;;;;;;;;;12.53;57.65;99572.19;4947147;28;102719;-68
2024/02/04 11:28:34;;;;;;;;;;;;;;;12.24;58.62;99570.72;4966854;28;102872;-71
2024/02/04 11:31:29;;;;;;;;;;;;;;;12.00;59.03;99580.19;4960702;28;103850;-71
2024/02/04 11:34:09;;;;;;;;;;;;;;;11.74;59.16;99570.34;4961869;28;104246;-72
2024/02/04 11:36:53;;;;;;;;;;;;;;;11.41;60.44;99564.78;4974997;22;102570;-71
2024/02/04 11:39:34;;;;;;;;;;;;;;;11.65;59.66;99550.03;4991174;22;104864;-68
2024/02/04 11:42:18;;;;;;;;;;;;;;;11.30;60.38;99549.06;4980067;28;104443;-69
2024/02/04 11:44:49;;;;;;;;;;;;;;;11.61;60.23;99540.72;4980313;27;104237;-71
2024/02/04 11:47:28;;;;;;;;;;;;;;;11.85;59.88;99544.53;4983289;28;102676;-71
2024/02/04 11:50:09;;;;;;;;;;;;;;;11.82;59.29;99534.25;4977067;28;102788;-69
2024/02/04 11:52:40;;;;;;;;;;;;;;;11.94;58.56;99533.00;4977076;28;104094;-69
2024/02/04 11:55:24;;;;;;;;;;;;;;;11.81;58.97;99533.41;4971533;28;104278;-69
2024/02/04 11:58:07;;;;;;;;;;;;;;;11.39;60.12;99516.34;4978522;28;103922;-71
2024/02/04 12:00:39;;;;;;;;;;;;;;;11.36;60.76;99514.00;4980164;28;102752;-69
2024/02/04 12:03:08;;;;;;;;;;;;;;;11.15;61.08;99510.81;4967616;28;103830;-69
2024/02/04 12:05:52;;;;;;;;;;;;;;;11.13;60.69;99502.19;4965632;28;103864;-69
2024/02/04 12:13:51;;;;;;;;;;;;;;;11.10;61.52;99501.50;4958756;28;103077;-69
2024/02/04 12:16:19;;;;;;;;;;;;;;;11.09;61.76;99491.88;4969186;28;103047;-69
2024/02/04 12:18:50;;;;;;;;;;;;;;;11.07;61.47;99482.41;4964589;28;103169;-69
2024/02/04 12:21:19;;;;;;;;;;;;;;;11.08;61.74;99482.28;4973236;28;102775;-69
2024/02/04 12:23:47;;;;;;;;;;;;;;;11.07;61.76;99491.22;4977289;28;104645;-69
2024/02/04 12:26:18;;;;;;;;;;;;;;;10.95;62.48;99489.75;4970618;28;103230;-70
2024/02/04 12:28:46;;;;;;;;;;;;;;;10.80;62.42;99496.59;4970310;28;103006;-70
2024/02/04 12:31:21;;;;;;;;;;;;;;;10.93;61.98;99497.03;4962893;28;103046;-71
2024/02/04 12:33:57;;;;;;;;;;;;;;;11.03;62.22;99497.81;4966269;28;103873;-71
2024/02/04 12:36:26;;;;;;;;;;;;;;;11.24;60.76;99500.16;4965013;28;103355;-71
2024/02/04 12:38:54;;;;;;;;;;;;;;;11.29;60.65;99489.06;4951490;28;103388;-71
2024/02/04 12:41:37;;;;;;;;;;;;;;;11.37;60.94;99489.16;4963661;28;103016;-71
2024/02/04 12:44:07;;;;;;;;;;;;;;;11.41;60.75;99494.97;4965935;28;103699;-71
2024/02/04 12:46:37;;;;;;;;;;;;;;;11.57;60.38;99495.09;4971157;28;103868;-71
2024/02/04 12:49:05;;;;;;;;;;;;;;;11.62;60.97;99484.03;4975143;28;103181;-71
2024/02/04 12:51:34;;;;;;;;;;;;;;;11.60;60.89;99475.38;4975726;28;103135;-71
2024/02/04 12:54:06;;;;;;;;;;;;;;;11.60;60.30;99472.72;4977815;28;104431;-71